Flight Track Log - Related Links

Times and Time Zones

All times are in EDT time to prevent confusion due to time zone crossing. See the N450S flight status page for this flight to view local times or setup timezone preferences in your user account.

Time Position Orientation Groundspeed Altitude Reporting Facility
EDT Latitude Longitude Course Direction KTS MPH feet Rate Location/Type
Thu 01:57:12 PM 41.5083 -81.7033 311° West 143 165 1,000  Level Cleveland Center
Thu 01:58:25 PM 41.5411 -81.7539 311° West 195 224 2,000 451 Climbing Cleveland Center
Thu 01:59:25 PM 41.5844 -81.8017 320° Northwest 226 260 2,000 605 Level Cleveland Center
Thu 02:00:34 PM 41.5897 -81.8853 275° West 190 219 3,300 1,574 Climbing Cleveland Center
Thu 02:01:27 PM 41.5808 -81.9433 258° West 167 192 5,200 1,895 Climbing Cleveland Center
Thu 02:02:28 PM 41.5717 -82.0042 259° West 164 189 6,900 1,606 Climbing Cleveland Center
Thu 02:03:34 PM 41.5667 -82.0653 264° West 179 206 8,600 1,619 Climbing Cleveland Center
Thu 02:04:34 PM 41.5575 -82.1289 259° West 179 206 10,300 1,700 Climbing Cleveland Center
Thu 02:05:34 PM 41.5506 -82.1925 262° West 179 206 12,000 1,700 Climbing Cleveland Center
Thu 02:06:34 PM 41.5433 -82.2589 262° West 179 206 13,700 1,700 Climbing Cleveland Center
Thu 02:07:34 PM 41.5339 -82.3222 259° West 179 206 15,400 1,150 Climbing Cleveland Center
Thu 02:08:34 PM 41.5267 -82.3917 262° West 187 215 16,000 300 Climbing Cleveland Center
Thu 02:09:34 PM 41.5128 -82.4825 258° West 216 249 16,000  Level Cleveland Center
Thu 02:10:34 PM 41.5028 -82.5767 262° West 254 292 16,000  Level Cleveland Center
Thu 02:11:34 PM 41.4906 -82.6733 260° West 260 299 16,000  Level Cleveland Center
Thu 02:12:34 PM 41.4783 -82.7672 260° West 260 299 16,000  Level Cleveland Center
Thu 02:13:34 PM 41.4661 -82.8581 260° West 260 299 16,000  Level Cleveland Center
Thu 02:14:34 PM 41.4517 -82.9547 259° West 260 299 16,000  Level Cleveland Center
Thu 02:15:33 PM 41.4392 -83.0511 260° West 260 299 16,000  Level Cleveland Center
Thu 02:16:34 PM 41.4269 -83.1419 260° West 260 299 16,000  Level Cleveland Center
Thu 02:17:34 PM 41.4164 -83.2303 261° West 260 299 16,000  Level Cleveland Center
Thu 02:18:33 PM 41.4039 -83.3239 260° West 260 299 16,000  Level Cleveland Center
Thu 02:19:34 PM 41.3911 -83.4175 260° West 260 299 16,000  Level Cleveland Center
Thu 02:20:34 PM 41.3783 -83.5111 260° West 260 299 16,000  Level Cleveland Center
Thu 02:21:34 PM 41.3633 -83.6072 258° West 260 299 16,000  Level Cleveland Center
Thu 02:22:34 PM 41.3506 -83.7006 260° West 260 299 16,000 -350 Level Cleveland Center
Thu 02:23:34 PM 41.3394 -83.7969 261° West 260 299 15,300 -1,050 Descending Cleveland Center
Thu 02:24:34 PM 41.3278 -83.9097 262° West 270 311 13,900 -1,212 Descending Cleveland Center
Thu 02:25:18 PM 41.3194 -83.9711 260° West 276 318 13,200 -1,075 Descending Chicago Center
Thu 02:26:20 PM 41.3039 -84.0739 259° West 281 323 12,000 -1,500 Descending Chicago Center
Thu 02:27:22 PM 41.2861 -84.1944 259° West 280 322 10,100 -1,632 Descending Chicago Center
Thu 02:28:25 PM 41.2719 -84.2919 259° West 275 316 8,600 -1,584 Descending Chicago Center
Thu 02:29:27 PM 41.2586 -84.3833 259° West 264 304 6,800 -1,306 Descending Chicago Center
Thu 02:30:29 PM 41.2453 -84.4697 258° West 253 291 5,900 -919 Descending Chicago Center
Thu 02:31:31 PM 41.2350 -84.5461 260° West 233 268 4,900 -919 Descending Chicago Center
Thu 02:32:33 PM 41.2236 -84.6244 259° West 222 255 4,000 -823 Descending Chicago Center
Thu 02:33:35 PM 41.2092 -84.7192 259° West 219 252 3,200 -484 Descending Chicago Center
Thu 02:34:37 PM 41.1978 -84.7961 259° West 216 249 3,000 -97 Descending Chicago Center
Thu 02:35:39 PM 41.1872 -84.8703 259° West 211 243 3,000  Level Chicago Center
Thu 02:36:41 PM 41.1756 -84.9408 258° West 205 236 3,000  Level Chicago Center
Thu 02:37:43 PM 41.1658 -85.0094 259° West 197 227 3,000 -97 Level Chicago Center
Thu 02:38:45 PM 41.1522 -85.0894 257° West 194 223 2,800 -194 Descending Chicago Center

Login

Don't have an account? Register now (free) for customized features, flight alerts, and more!